createdAt,value
2019-06-08T00:00:28.577Z,95.20
2019-06-08T00:02:57.565Z,95.20
2019-06-08T00:05:26.873Z,95.20
2019-06-08T00:07:55.963Z,95.20
2019-06-08T00:10:25.820Z,95.20
2019-06-08T00:12:55.075Z,95.20
2019-06-08T00:15:24.430Z,95.20
2019-06-08T00:17:53.292Z,95.20
2019-06-08T00:20:21.992Z,95.20
2019-06-08T00:22:50.803Z,95.10
2019-06-08T00:25:20.808Z,95.20
2019-06-08T00:27:49.984Z,95.50
2019-06-08T00:30:18.956Z,95.20
2019-06-08T00:32:47.716Z,95.10
2019-06-08T00:35:16.630Z,95.10
2019-06-08T00:37:45.388Z,95.10
2019-06-08T00:40:14.803Z,95.10
2019-06-08T00:42:43.906Z,95.20
2019-06-08T00:45:12.896Z,95.00
2019-06-08T00:47:47.935Z,95.10
2019-06-08T00:50:13.977Z,95.10
2019-06-08T00:52:42.747Z,95.10
2019-06-08T00:55:11.438Z,95.00
2019-06-08T00:57:40.137Z,95.10
2019-06-08T01:00:10.681Z,95.10
2019-06-08T01:02:39.740Z,95.00
2019-06-08T01:05:08.412Z,95.00
2019-06-08T01:07:37.085Z,95.00
2019-06-08T01:10:06.104Z,95.10
2019-06-08T01:12:34.772Z,95.00
2019-06-08T01:15:03.761Z,95.00
2019-06-08T01:17:33.111Z,95.00
2019-06-08T01:20:03.009Z,95.30
2019-06-08T01:22:32.749Z,95.00
2019-06-08T01:25:01.433Z,95.00
2019-06-08T01:27:30.209Z,95.00
2019-06-08T01:29:58.928Z,95.00
2019-06-08T01:32:28.573Z,95.00
2019-06-08T01:34:57.681Z,95.00
2019-06-08T01:37:27.021Z,95.00
2019-06-08T01:39:55.784Z,95.00
2019-06-08T01:42:25.549Z,95.00
2019-06-08T01:44:54.765Z,95.00
2019-06-08T01:47:24.599Z,95.00
2019-06-08T01:49:53.429Z,95.00
2019-06-08T01:52:22.521Z,95.00
2019-06-08T01:54:51.296Z,95.00
2019-06-08T01:57:20.236Z,94.90
2019-06-08T01:59:48.928Z,94.90
2019-06-08T02:02:17.658Z,94.90
2019-06-08T02:04:46.372Z,94.90
2019-06-08T02:07:15.043Z,94.90
2019-06-08T02:09:44.076Z,94.90
2019-06-08T02:12:12.749Z,94.90
2019-06-08T02:14:41.774Z,94.90
2019-06-08T02:17:10.481Z,94.90
2019-06-08T02:19:39.257Z,94.90
2019-06-08T02:22:07.938Z,94.90
2019-06-08T02:24:36.636Z,94.90
2019-06-08T02:27:05.588Z,94.90
2019-06-08T02:29:34.284Z,94.90
2019-06-08T02:32:02.954Z,94.90
2019-06-08T02:34:33.514Z,94.90
2019-06-08T02:37:02.024Z,94.90
2019-06-08T02:39:32.593Z,94.90
2019-06-08T02:42:01.512Z,94.80
2019-06-08T02:44:30.269Z,94.80
2019-06-08T02:46:59.266Z,94.80
2019-06-08T02:49:29.082Z,94.80
2019-06-08T02:51:58.297Z,94.80
2019-06-08T02:54:27.049Z,94.70
2019-06-08T02:56:56.165Z,94.70
2019-06-08T02:59:24.857Z,94.80
2019-06-08T03:01:53.982Z,94.70
2019-06-08T03:04:22.673Z,94.70
2019-06-08T03:06:51.340Z,94.70
2019-06-08T03:09:20.037Z,94.70
2019-06-08T03:11:48.708Z,94.70
2019-06-08T03:14:18.271Z,94.70
2019-06-08T03:16:47.161Z,94.70
2019-06-08T03:19:21.938Z,94.70
2019-06-08T03:21:46.205Z,94.70
2019-06-08T03:24:14.883Z,94.70
2019-06-08T03:26:44.215Z,94.70
2019-06-08T03:29:13.280Z,94.70
2019-06-08T03:31:51.216Z,94.70
2019-06-08T03:34:12.398Z,94.70
2019-06-08T03:36:53.544Z,94.70
2019-06-08T03:39:11.441Z,94.70
2019-06-08T03:41:40.478Z,94.70
2019-06-08T03:44:09.586Z,94.70
2019-06-08T03:46:38.904Z,94.70
2019-06-08T03:49:09.221Z,95.00
2019-06-08T03:51:43.563Z,94.60
2019-06-08T03:54:09.465Z,94.60
2019-06-08T03:56:39.987Z,94.50
2019-06-08T03:59:08.528Z,94.60
2019-06-08T04:01:37.488Z,94.60
2019-06-08T04:04:06.420Z,94.60
2019-06-08T04:06:35.184Z,94.50
2019-06-08T04:09:05.201Z,94.50
2019-06-08T04:11:34.116Z,94.50
2019-06-08T04:14:02.801Z,94.50
2019-06-08T04:16:31.814Z,94.50
2019-06-08T04:19:00.500Z,94.50
2019-06-08T04:21:29.235Z,94.50
2019-06-08T04:23:57.904Z,94.50
2019-06-08T04:26:26.899Z,94.50
2019-06-08T04:28:55.710Z,94.50
2019-06-08T04:31:24.397Z,94.50
2019-06-08T04:33:53.072Z,94.40
2019-06-08T04:36:21.751Z,94.40
2019-06-08T04:38:50.420Z,94.40
2019-06-08T04:41:19.090Z,94.40
2019-06-08T04:43:49.657Z,94.40
2019-06-08T04:46:18.151Z,94.40
2019-06-08T04:48:47.996Z,94.40
2019-06-08T04:51:17.810Z,94.40
2019-06-08T04:53:47.223Z,94.30
2019-06-08T04:56:16.430Z,94.30
2019-06-08T04:58:46.831Z,94.30
2019-06-08T05:01:16.138Z,94.30
2019-06-08T05:03:45.515Z,94.30
2019-06-08T05:06:15.186Z,94.30
2019-06-08T05:08:45.248Z,94.30
2019-06-08T05:11:14.114Z,94.30
2019-06-08T05:13:43.349Z,94.30
2019-06-08T05:16:12.149Z,94.30
2019-06-08T05:18:41.291Z,94.30
2019-06-08T05:21:10.964Z,94.30
2019-06-08T05:23:39.641Z,94.30
2019-06-08T05:26:08.645Z,94.30
2019-06-08T05:28:37.317Z,94.60
2019-06-08T05:31:05.996Z,94.20
2019-06-08T05:33:34.672Z,94.20
2019-06-08T05:36:03.353Z,94.20
2019-06-08T05:38:32.030Z,94.20
2019-06-08T05:41:00.789Z,94.20
2019-06-08T05:43:29.488Z,94.20
2019-06-08T05:45:58.202Z,94.20
2019-06-08T05:48:27.202Z,94.10
2019-06-08T05:51:03.602Z,94.00
2019-06-08T05:53:26.284Z,93.90
2019-06-08T05:55:55.615Z,94.00
2019-06-08T05:58:24.310Z,93.80
2019-06-08T06:00:53.073Z,94.00
2019-06-08T06:03:23.109Z,93.90
2019-06-08T06:05:51.813Z,94.20
2019-06-08T06:08:20.862Z,94.30
2019-06-08T06:10:51.021Z,94.40
2019-06-08T06:13:20.357Z,94.40
2019-06-08T06:15:49.102Z,94.20
2019-06-08T06:18:17.808Z,94.20
2019-06-08T06:20:47.348Z,94.10
2019-06-08T06:23:16.072Z,94.00
2019-06-08T06:25:45.386Z,94.30
2019-06-08T06:28:14.305Z,94.30
2019-06-08T06:30:44.201Z,94.50
2019-06-08T06:33:13.273Z,94.70
2019-06-08T06:35:43.619Z,94.70
2019-06-08T06:38:12.893Z,94.50
2019-06-08T06:40:41.943Z,94.20
2019-06-08T06:43:10.737Z,94.40
2019-06-08T06:45:39.416Z,94.30
2019-06-08T06:48:08.093Z,94.20
2019-06-08T06:50:37.059Z,94.20
2019-06-08T06:53:05.830Z,94.20
2019-06-08T06:55:34.692Z,94.30
2019-06-08T06:58:03.434Z,94.50
2019-06-08T07:00:32.768Z,94.40
2019-06-08T07:03:01.531Z,94.40
2019-06-08T07:05:30.681Z,94.40
2019-06-08T07:07:59.547Z,94.40
2019-06-08T07:10:29.327Z,94.40
2019-06-08T07:12:58.021Z,94.40
2019-06-08T07:15:27.132Z,94.50
2019-06-08T07:17:56.224Z,94.40
2019-06-08T07:20:25.252Z,94.40
2019-06-08T07:22:54.397Z,94.50
2019-06-08T07:25:23.545Z,94.40
2019-06-08T07:27:52.650Z,94.40
2019-06-08T07:30:21.535Z,94.40
2019-06-08T07:32:50.924Z,94.40
2019-06-08T07:35:20.044Z,94.40
2019-06-08T07:37:49.936Z,94.40
2019-06-08T07:40:19.302Z,94.40
2019-06-08T07:42:49.683Z,94.40
2019-06-08T07:45:19.481Z,94.30
2019-06-08T07:47:48.185Z,94.30
2019-06-08T07:50:17.181Z,94.30
2019-06-08T07:52:46.201Z,94.30
2019-06-08T07:55:16.493Z,94.30
2019-06-08T07:57:45.189Z,94.30
2019-06-08T08:00:14.154Z,94.30
2019-06-08T08:02:43.374Z,94.20
2019-06-08T08:05:12.107Z,94.50
2019-06-08T08:07:44.160Z,94.30
2019-06-08T08:10:15.123Z,94.60
2019-06-08T08:12:44.785Z,94.80
2019-06-08T08:15:13.529Z,94.60
2019-06-08T08:17:42.513Z,94.60
2019-06-08T08:20:11.188Z,94.60
2019-06-08T08:22:39.888Z,94.20
2019-06-08T08:25:08.556Z,92.50
2019-06-08T08:27:37.753Z,89.20
2019-06-08T08:30:08.339Z,91.60
2019-06-08T08:32:38.009Z,93.00
2019-06-08T08:35:08.822Z,93.20
2019-06-08T08:37:38.082Z,93.10
2019-06-08T08:40:07.823Z,93.00
2019-06-08T08:42:38.634Z,93.00
2019-06-08T08:45:08.762Z,92.70
2019-06-08T08:47:38.703Z,92.90
2019-06-08T08:50:07.718Z,93.00
2019-06-08T08:52:40.676Z,92.90
2019-06-08T08:55:08.431Z,92.90
2019-06-08T08:57:38.549Z,93.10
2019-06-08T09:00:08.686Z,92.20
2019-06-08T09:02:37.590Z,91.00
2019-06-08T09:05:08.663Z,92.00
2019-06-08T09:07:38.485Z,92.20
2019-06-08T09:10:11.329Z,90.90
2019-06-08T09:12:39.271Z,91.40
2019-06-08T09:15:08.760Z,90.50
2019-06-08T09:17:38.798Z,90.70
2019-06-08T09:20:08.870Z,91.10
2019-06-08T09:22:52.946Z,91.50
2019-06-08T09:25:08.822Z,91.10
2019-06-08T09:27:38.234Z,91.00
2019-06-08T09:30:08.339Z,89.50
2019-06-08T09:32:38.234Z,89.80
2019-06-08T09:35:09.371Z,89.80
2019-06-08T09:37:37.866Z,90.80
2019-06-08T09:40:06.947Z,90.90
2019-06-08T09:42:35.708Z,90.30
2019-06-08T09:45:05.551Z,90.60
2019-06-08T09:47:35.133Z,90.30
2019-06-08T09:50:05.592Z,90.40
2019-06-08T09:52:34.552Z,90.40
2019-06-08T09:55:05.825Z,90.30
2019-06-08T09:57:33.778Z,90.20
2019-06-08T10:00:12.731Z,90.00
2019-06-08T10:02:32.930Z,89.60
2019-06-08T10:05:04.025Z,89.60
2019-06-08T10:07:32.431Z,90.00
2019-06-08T10:10:03.097Z,89.50
2019-06-08T10:12:31.864Z,88.40
2019-06-08T10:15:00.784Z,86.90
2019-06-08T10:17:31.145Z,86.70
2019-06-08T10:20:01.190Z,84.10
2019-06-08T10:22:30.444Z,82.30
2019-06-08T10:25:03.712Z,85.60
2019-06-08T10:27:29.881Z,85.80
2019-06-08T10:30:09.466Z,86.60
2019-06-08T10:32:38.294Z,87.30
2019-06-08T10:35:10.098Z,86.00
2019-06-08T10:37:38.421Z,84.50
2019-06-08T10:40:08.572Z,84.60
2019-06-08T10:42:39.992Z,80.70
2019-06-08T10:45:12.652Z,81.00
2019-06-08T10:47:39.477Z,81.80
2019-06-08T10:50:13.452Z,85.40
2019-06-08T10:52:39.258Z,86.10
2019-06-08T10:55:17.947Z,85.00
2019-06-08T10:57:42.629Z,87.00
2019-06-08T11:00:20.073Z,86.10
2019-06-08T11:02:42.202Z,87.00
2019-06-08T11:05:13.926Z,87.10
2019-06-08T11:07:41.759Z,85.90
2019-06-08T11:10:12.412Z,85.40
2019-06-08T11:12:42.038Z,87.00
2019-06-08T11:15:11.922Z,87.60
2019-06-08T11:17:45.489Z,87.70
2019-06-08T11:20:14.627Z,86.60
2019-06-08T11:22:43.567Z,86.20
2019-06-08T11:25:16.225Z,85.10
2019-06-08T11:27:42.742Z,85.00
2019-06-08T11:30:20.484Z,86.20
2019-06-08T11:32:41.905Z,86.60
2019-06-08T11:35:12.515Z,85.50
2019-06-08T11:37:41.324Z,85.80
2019-06-08T11:40:12.384Z,85.50
2019-06-08T11:42:40.834Z,85.20
2019-06-08T11:45:12.721Z,84.80
2019-06-08T11:47:40.317Z,85.00
2019-06-08T11:50:12.597Z,84.80
2019-06-08T11:52:39.549Z,85.00
2019-06-08T11:55:11.310Z,84.70
2019-06-08T11:57:40.381Z,83.40
2019-06-08T12:00:22.375Z,84.20
2019-06-08T12:02:41.283Z,84.70
2019-06-08T12:05:12.441Z,85.50
2019-06-08T12:07:40.691Z,85.60
2019-06-08T12:10:11.338Z,84.90
2019-06-08T12:12:39.741Z,85.00
2019-06-08T12:15:11.496Z,85.00
2019-06-08T12:17:39.122Z,85.60
2019-06-08T12:20:08.551Z,83.60
2019-06-08T12:22:40.184Z,82.70
2019-06-08T12:25:08.537Z,81.80
2019-06-08T12:27:40.131Z,80.90
2019-06-08T12:30:16.728Z,80.90
2019-06-08T12:32:39.148Z,79.20
2019-06-08T12:35:09.727Z,79.20
2019-06-08T12:37:38.678Z,80.10
2019-06-08T12:40:11.261Z,80.70
2019-06-08T12:42:38.281Z,79.70
2019-06-08T12:45:07.333Z,77.50
2019-06-08T12:47:38.073Z,77.10
2019-06-08T12:50:09.024Z,78.40
2019-06-08T12:52:39.277Z,77.70
2019-06-08T12:55:12.583Z,77.10
2019-06-08T12:57:37.984Z,76.90
2019-06-08T13:00:08.439Z,76.50
2019-06-08T13:02:38.429Z,76.90
2019-06-08T13:05:10.677Z,77.80
2019-06-08T13:07:38.533Z,78.00
2019-06-08T13:10:08.852Z,77.70
2019-06-08T13:12:40.679Z,77.50
2019-06-08T13:15:09.625Z,79.70
2019-06-08T13:17:38.812Z,76.70
2019-06-08T13:20:09.159Z,77.40
2019-06-08T13:22:39.126Z,76.90
2019-06-08T13:25:19.264Z,76.60
2019-06-08T13:27:38.415Z,76.70
2019-06-08T13:30:07.575Z,77.20
2019-06-08T13:32:38.267Z,78.70
2019-06-08T13:35:08.232Z,78.00
2019-06-08T13:37:39.052Z,77.10
2019-06-08T13:40:08.210Z,77.30
2019-06-08T13:42:38.333Z,78.40
2019-06-08T13:45:07.585Z,78.60
2019-06-08T13:47:38.912Z,77.00
2019-06-08T13:50:10.802Z,74.10
2019-06-08T13:52:38.907Z,73.30
2019-06-08T13:55:07.575Z,75.90
2019-06-08T13:57:37.938Z,77.10
2019-06-08T14:00:08.081Z,75.30
2019-06-08T14:02:39.681Z,75.30
2019-06-08T14:05:08.180Z,75.80
2019-06-08T14:07:38.043Z,76.90
2019-06-08T14:10:06.908Z,75.80
2019-06-08T14:12:38.216Z,76.50
2019-06-08T14:15:08.636Z,76.80
2019-06-08T14:17:37.856Z,76.80
2019-06-08T14:20:08.034Z,77.00
2019-06-08T14:22:38.884Z,75.70
2019-06-08T14:25:10.602Z,77.50
2019-06-08T14:27:37.964Z,78.50
2019-06-08T14:30:08.347Z,78.00
2019-06-08T14:32:38.124Z,78.90
2019-06-08T14:35:08.724Z,79.00
2019-06-08T14:37:38.064Z,79.40
2019-06-08T14:40:08.127Z,79.60
2019-06-08T14:42:38.437Z,79.60
2019-06-08T14:45:10.778Z,79.60
2019-06-08T14:47:38.278Z,79.80
2019-06-08T14:50:07.979Z,80.20
2019-06-08T14:52:38.196Z,80.30
2019-06-08T14:55:08.097Z,80.60
2019-06-08T14:57:37.495Z,80.90
2019-06-08T15:00:11.363Z,80.80
2019-06-08T15:02:38.054Z,81.10
2019-06-08T15:05:07.801Z,81.20
2019-06-08T15:07:38.819Z,81.20
2019-06-08T15:10:09.751Z,81.20
2019-06-08T15:12:38.431Z,81.70
2019-06-08T15:15:10.777Z,81.40
2019-06-08T15:17:38.070Z,82.20
2019-06-08T15:20:08.834Z,82.80
2019-06-08T15:22:38.945Z,83.20
2019-06-08T15:25:11.040Z,83.90
2019-06-08T15:27:38.909Z,84.30
2019-06-08T15:30:07.958Z,84.30
2019-06-08T15:32:38.745Z,84.70
2019-06-08T15:35:08.027Z,84.80
2019-06-08T15:37:37.951Z,85.20
2019-06-08T15:40:07.844Z,85.30
2019-06-08T15:42:36.901Z,85.30
2019-06-08T15:45:08.077Z,85.50
2019-06-08T15:47:40.466Z,85.50
2019-06-08T15:50:08.833Z,85.60
2019-06-08T15:52:38.108Z,85.80
2019-06-08T15:55:10.890Z,85.80
2019-06-08T15:57:40.989Z,86.00
2019-06-08T16:00:10.197Z,86.10
2019-06-08T16:02:39.236Z,86.20
2019-06-08T16:05:08.896Z,86.30
2019-06-08T16:07:37.894Z,86.40
2019-06-08T16:10:06.940Z,86.50
2019-06-08T16:12:35.979Z,86.50
2019-06-08T16:15:05.478Z,86.50
2019-06-08T16:17:35.437Z,87.30
2019-06-08T16:20:04.560Z,86.60
2019-06-08T16:22:34.368Z,86.60
2019-06-08T16:25:03.068Z,86.80
2019-06-08T16:27:32.126Z,86.80
2019-06-08T16:30:08.647Z,86.80
2019-06-08T16:32:31.801Z,86.80
2019-06-08T16:35:01.656Z,86.70
2019-06-08T16:37:31.509Z,86.70
2019-06-08T16:40:00.527Z,86.80
2019-06-08T16:42:30.187Z,86.70
2019-06-08T16:44:58.968Z,86.90
2019-06-08T16:47:28.779Z,86.80
2019-06-08T16:49:57.708Z,86.70
2019-06-08T16:52:26.718Z,86.60
2019-06-08T16:54:55.412Z,87.00
2019-06-08T16:57:24.401Z,86.70
2019-06-08T16:59:53.094Z,87.00
2019-06-08T17:02:21.765Z,86.70
2019-06-08T17:04:50.464Z,86.90
2019-06-08T17:07:19.450Z,86.90
2019-06-08T17:09:48.137Z,87.10
2019-06-08T17:12:17.121Z,87.30
2019-06-08T17:14:46.120Z,87.80
2019-06-08T17:17:14.801Z,87.20
2019-06-08T17:19:43.492Z,87.30
2019-06-08T17:22:12.244Z,87.30
2019-06-08T17:24:41.321Z,87.30
2019-06-08T17:27:25.257Z,87.40
2019-06-08T17:29:41.003Z,87.30
2019-06-08T17:32:09.862Z,87.40
2019-06-08T17:34:40.150Z,87.50
2019-06-08T17:37:09.057Z,87.50
2019-06-08T17:39:37.921Z,87.00
2019-06-08T17:42:06.672Z,87.10
2019-06-08T17:44:36.455Z,87.60
2019-06-08T17:47:05.693Z,87.30
2019-06-08T17:49:34.566Z,82.10
2019-06-08T17:52:03.769Z,80.40
2019-06-08T17:54:36.721Z,79.20
2019-06-08T17:57:07.982Z,78.10
2019-06-08T17:59:39.555Z,75.80
2019-06-08T18:02:13.786Z,75.80
2019-06-08T18:04:42.532Z,73.70
2019-06-08T18:07:12.206Z,74.30
2019-06-08T18:09:42.279Z,74.90
2019-06-08T18:12:15.484Z,76.40
2019-06-08T18:14:45.727Z,76.20
2019-06-08T18:17:17.742Z,75.90
2019-06-08T18:19:49.499Z,77.20
2019-06-08T18:22:19.440Z,77.90
2019-06-08T18:24:48.206Z,78.10
2019-06-08T18:27:18.108Z,78.80
2019-06-08T18:29:48.835Z,79.20
2019-06-08T18:32:20.286Z,79.50
2019-06-08T18:34:50.422Z,79.80
2019-06-08T18:37:19.630Z,80.00
2019-06-08T18:39:49.461Z,80.40
2019-06-08T18:42:18.623Z,82.30
2019-06-08T18:44:48.553Z,81.50
2019-06-08T18:47:17.907Z,81.50
2019-06-08T18:49:48.359Z,81.60
2019-06-08T18:52:19.728Z,82.20
2019-06-08T18:54:49.743Z,82.40
2019-06-08T18:57:19.087Z,82.10
2019-06-08T18:59:51.562Z,82.70
2019-06-08T19:02:19.472Z,82.90
2019-06-08T19:04:49.821Z,83.00
2019-06-08T19:07:18.927Z,83.10
2019-06-08T19:09:49.502Z,83.20
2019-06-08T19:12:19.668Z,83.40
2019-06-08T19:14:51.957Z,83.30
2019-06-08T19:17:21.065Z,83.40
2019-06-08T19:19:52.314Z,83.50
2019-06-08T19:22:23.841Z,82.90
2019-06-08T19:24:53.101Z,83.60
2019-06-08T19:27:22.695Z,83.70
2019-06-08T19:29:52.023Z,83.90
2019-06-08T19:32:23.633Z,84.00
2019-06-08T19:34:54.736Z,84.50
2019-06-08T19:37:22.927Z,84.90
2019-06-08T19:39:51.914Z,84.40
2019-06-08T19:42:33.283Z,85.00
2019-06-08T19:45:01.283Z,85.10
2019-06-08T19:47:21.761Z,85.50
2019-06-08T19:49:54.715Z,85.60
2019-06-08T19:52:24.420Z,85.60
2019-06-08T19:54:54.796Z,85.80
2019-06-08T19:57:23.811Z,85.70
2019-06-08T19:59:52.998Z,86.00
2019-06-08T20:02:23.956Z,86.10
2019-06-08T20:04:54.907Z,86.30
2019-06-08T20:07:24.325Z,86.40
2019-06-08T20:09:54.018Z,86.20
2019-06-08T20:12:27.988Z,86.30
2019-06-08T20:14:57.641Z,86.50
2019-06-08T20:17:28.343Z,86.50
2019-06-08T20:19:58.393Z,86.80
2019-06-08T20:22:29.053Z,87.00
2019-06-08T20:24:57.863Z,87.00
2019-06-08T20:27:27.699Z,86.90
2019-06-08T20:29:58.185Z,86.90
2019-06-08T20:32:28.165Z,87.10
2019-06-08T20:34:57.662Z,87.10
2019-06-08T20:37:28.215Z,87.20
2019-06-08T20:40:09.786Z,87.10
2019-06-08T20:42:28.853Z,87.10
2019-06-08T20:44:58.327Z,87.30
2019-06-08T20:47:27.663Z,87.20
2019-06-08T20:50:00.143Z,87.30
2019-06-08T20:52:32.064Z,87.50
2019-06-08T20:55:01.122Z,87.60
2019-06-08T20:57:30.320Z,87.60
2019-06-08T20:59:59.144Z,87.90
2019-06-08T21:02:28.582Z,88.00
2019-06-08T21:04:59.504Z,88.10
2019-06-08T21:07:28.150Z,88.30
2019-06-08T21:09:58.089Z,88.30
2019-06-08T21:12:29.772Z,88.30
2019-06-08T21:14:58.582Z,88.40
2019-06-08T21:17:27.638Z,88.70
2019-06-08T21:19:57.942Z,89.00
2019-06-08T21:22:27.758Z,89.00
2019-06-08T21:24:59.709Z,89.00
2019-06-08T21:27:27.736Z,89.00
2019-06-08T21:30:06.070Z,89.00
2019-06-08T21:32:27.880Z,89.10
2019-06-08T21:34:59.964Z,89.00
2019-06-08T21:37:28.188Z,89.00
2019-06-08T21:40:03.434Z,89.30
2019-06-08T21:42:28.148Z,90.00
2019-06-08T21:44:59.931Z,89.30
2019-06-08T21:47:28.280Z,89.60
2019-06-08T21:49:59.271Z,89.60
2019-06-08T21:52:27.413Z,89.50
2019-06-08T21:54:58.877Z,89.60
2019-06-08T21:57:27.742Z,89.70
2019-06-08T22:00:18.786Z,89.90
2019-06-08T22:02:27.985Z,89.80
2019-06-08T22:05:01.661Z,89.90
2019-06-08T22:07:28.355Z,89.90
2019-06-08T22:09:59.191Z,90.00
2019-06-08T22:12:27.812Z,90.00
2019-06-08T22:15:00.643Z,90.00
2019-06-08T22:17:27.900Z,90.00
2019-06-08T22:19:59.228Z,90.00
2019-06-08T22:22:27.051Z,90.10
2019-06-08T22:24:58.318Z,90.00
2019-06-08T22:27:27.224Z,89.90
2019-06-08T22:29:58.176Z,89.90
2019-06-08T22:32:27.677Z,89.90
2019-06-08T22:35:00.160Z,90.00
2019-06-08T22:37:26.856Z,90.00
2019-06-08T22:39:58.210Z,90.00
2019-06-08T22:42:26.431Z,90.00
2019-06-08T22:44:57.739Z,90.00
2019-06-08T22:47:27.649Z,89.90
2019-06-08T22:49:58.742Z,90.00
2019-06-08T22:52:27.703Z,89.90
2019-06-08T22:55:01.754Z,89.80
2019-06-08T22:57:27.818Z,89.80
2019-06-08T23:00:00.126Z,89.80
2019-06-08T23:02:27.804Z,89.80
2019-06-08T23:04:59.529Z,89.80
2019-06-08T23:07:32.416Z,89.80
2019-06-08T23:10:00.061Z,89.80
2019-06-08T23:12:28.782Z,89.90
2019-06-08T23:14:59.194Z,90.20
2019-06-08T23:17:28.108Z,89.80
2019-06-08T23:19:57.858Z,89.80
2019-06-08T23:22:27.760Z,89.80
2019-06-08T23:24:59.541Z,89.80
2019-06-08T23:27:27.155Z,89.90
2019-06-08T23:29:56.657Z,89.80
2019-06-08T23:32:27.629Z,89.80
2019-06-08T23:34:56.632Z,89.80
2019-06-08T23:37:27.723Z,89.80
2019-06-08T23:39:58.859Z,89.80
2019-06-08T23:42:27.334Z,89.80
2019-06-08T23:44:57.998Z,89.80
2019-06-08T23:47:27.466Z,89.80
2019-06-08T23:49:59.235Z,89.80
2019-06-08T23:52:27.317Z,89.40
2019-06-08T23:54:58.240Z,89.70
2019-06-08T23:57:27.255Z,89.70
2019-06-08T23:59:58.122Z,89.60
